createdAt,value
2023-04-18T00:01:33.264Z,7.08
2023-04-18T00:04:19.844Z,7.15
2023-04-18T00:07:07.278Z,7.10
2023-04-18T00:09:52.899Z,6.98
2023-04-18T00:12:39.072Z,7.03
2023-04-18T00:15:25.773Z,6.97
2023-04-18T00:18:12.385Z,6.99
2023-04-18T00:20:58.555Z,6.98
2023-04-18T00:23:46.224Z,6.98
2023-04-18T00:26:32.178Z,6.89
2023-04-18T00:29:18.565Z,6.88
2023-04-18T00:32:04.202Z,6.87
2023-04-18T00:34:50.132Z,6.83
2023-04-18T00:37:38.618Z,6.81
2023-04-18T00:40:25.711Z,6.72
2023-04-18T00:43:13.551Z,6.85
2023-04-18T00:46:01.521Z,6.88
2023-04-18T00:48:47.619Z,6.89
2023-04-18T00:51:34.165Z,6.86
2023-04-18T00:54:20.025Z,6.95
2023-04-18T00:57:07.859Z,6.97
2023-04-18T00:59:53.622Z,6.83
2023-04-18T01:02:39.986Z,6.74
2023-04-18T01:05:25.788Z,6.76
2023-04-18T01:08:11.669Z,6.80
2023-04-18T01:10:57.452Z,6.81
2023-04-18T01:13:49.365Z,6.81
2023-04-18T01:16:36.839Z,6.82
2023-04-18T01:19:23.088Z,6.64
2023-04-18T01:22:09.743Z,6.78
2023-04-18T01:24:57.154Z,6.69
2023-04-18T01:27:43.075Z,6.71
2023-04-18T01:30:28.901Z,6.70
2023-04-18T01:33:15.181Z,6.58
2023-04-18T01:36:01.017Z,6.60
2023-04-18T01:38:50.316Z,6.66
2023-04-18T01:41:37.655Z,6.59
2023-04-18T01:44:23.767Z,6.67
2023-04-18T01:47:09.504Z,6.62
2023-04-18T01:49:55.394Z,6.66
2023-04-18T01:52:41.274Z,6.70
2023-04-18T01:55:28.458Z,6.56
2023-04-18T01:58:16.166Z,6.45
2023-04-18T02:01:02.373Z,6.47
2023-04-18T02:03:48.681Z,6.31
2023-04-18T02:06:34.849Z,6.36
2023-04-18T02:09:20.917Z,6.10
2023-04-18T02:12:06.841Z,6.24
2023-04-18T02:14:54.450Z,6.24
2023-04-18T02:17:41.416Z,6.34
2023-04-18T02:20:28.518Z,6.14
2023-04-18T02:23:14.621Z,6.16
2023-04-18T02:26:00.577Z,6.29
2023-04-18T02:28:46.782Z,6.25
2023-04-18T02:31:34.151Z,6.19
2023-04-18T02:34:19.897Z,6.15
2023-04-18T02:37:07.657Z,6.30
2023-04-18T02:39:53.283Z,6.18
2023-04-18T02:42:39.408Z,6.11
2023-04-18T02:45:27.623Z,6.06
2023-04-18T02:48:17.698Z,6.06
2023-04-18T02:51:05.235Z,5.97
2023-04-18T02:53:55.053Z,6.06
2023-04-18T02:56:42.829Z,6.04
2023-04-18T02:59:40.441Z,6.16
2023-04-18T03:02:39.059Z,6.12
2023-04-18T03:05:41.169Z,5.98
2023-04-18T03:08:27.466Z,6.04
2023-04-18T03:11:13.233Z,6.09
2023-04-18T03:13:59.496Z,6.03
2023-04-18T03:16:53.067Z,6.01
2023-04-18T03:19:44.894Z,5.91
2023-04-18T03:22:34.642Z,6.01
2023-04-18T03:25:20.971Z,5.99
2023-04-18T03:28:10.729Z,5.99
2023-04-18T03:30:56.505Z,5.98
2023-04-18T03:33:44.139Z,5.96
2023-04-18T03:36:31.313Z,5.95
2023-04-18T03:39:18.538Z,5.99
2023-04-18T03:42:04.715Z,5.97
2023-04-18T03:44:51.097Z,5.91
2023-04-18T03:47:37.849Z,5.88
2023-04-18T03:50:25.596Z,5.87
2023-04-18T03:53:14.328Z,5.88
2023-04-18T03:56:02.012Z,5.90
2023-04-18T03:59:02.392Z,5.89
2023-04-18T04:01:49.237Z,5.97
2023-04-18T04:04:35.580Z,5.94
2023-04-18T04:07:21.504Z,5.89
2023-04-18T04:10:07.788Z,5.86
2023-04-18T04:12:55.224Z,5.87
2023-04-18T04:15:42.028Z,5.86
2023-04-18T04:18:31.172Z,5.87
2023-04-18T04:21:21.139Z,5.81
2023-04-18T04:24:10.321Z,5.87
2023-04-18T04:27:00.136Z,5.95
2023-04-18T04:29:47.326Z,5.96
2023-04-18T04:32:33.858Z,5.95
2023-04-18T04:35:19.795Z,5.96
2023-04-18T04:38:05.697Z,5.93
2023-04-18T04:40:59.269Z,5.98
2023-04-18T04:43:46.555Z,5.95
2023-04-18T04:46:40.284Z,5.98
2023-04-18T04:49:32.858Z,6.01
2023-04-18T04:52:18.641Z,6.01
2023-04-18T04:55:05.040Z,5.99
2023-04-18T04:57:50.996Z,6.00
2023-04-18T05:01:00.556Z,6.03
2023-04-18T05:03:47.991Z,6.02
2023-04-18T05:06:34.583Z,5.89
2023-04-18T05:09:20.430Z,6.00
2023-04-18T05:12:06.728Z,5.96
2023-04-18T05:14:52.773Z,6.02
2023-04-18T05:17:38.750Z,5.95
2023-04-18T05:20:26.533Z,6.01
2023-04-18T05:23:12.505Z,6.05
2023-04-18T05:25:59.014Z,5.96
2023-04-18T05:28:44.932Z,5.96
2023-04-18T05:31:30.880Z,6.00
2023-04-18T05:34:17.046Z,6.12
2023-04-18T05:37:04.247Z,6.09
2023-04-18T05:39:49.988Z,6.15
2023-04-18T05:42:35.892Z,6.12
2023-04-18T05:45:21.485Z,6.06
2023-04-18T05:48:07.294Z,6.16
2023-04-18T05:50:53.252Z,6.26
2023-04-18T05:53:40.355Z,6.32
2023-04-18T05:56:26.111Z,6.24
2023-04-18T05:59:12.089Z,6.28
2023-04-18T06:01:58.118Z,6.38
2023-04-18T06:04:44.039Z,6.32
2023-04-18T06:07:30.206Z,6.47
2023-04-18T06:10:17.334Z,6.46
2023-04-18T06:13:03.250Z,6.54
2023-04-18T06:15:48.965Z,6.60
2023-04-18T06:18:34.886Z,6.58
2023-04-18T06:21:21.153Z,6.62
2023-04-18T06:24:07.445Z,6.53
2023-04-18T06:26:58.186Z,6.65
2023-04-18T06:29:44.175Z,6.60
2023-04-18T06:32:30.103Z,6.71
2023-04-18T06:35:16.291Z,6.75
2023-04-18T06:38:02.027Z,6.76
2023-04-18T06:40:47.657Z,6.83
2023-04-18T06:43:35.795Z,6.94
2023-04-18T06:46:21.699Z,6.65
2023-04-18T06:49:07.400Z,6.81
2023-04-18T06:51:53.213Z,6.83
2023-04-18T06:54:39.078Z,7.05
2023-04-18T06:57:24.711Z,7.13
2023-04-18T07:00:12.381Z,7.19
2023-04-18T07:02:58.216Z,7.19
2023-04-18T07:05:44.378Z,7.15
2023-04-18T07:08:30.173Z,7.25
2023-04-18T07:11:18.448Z,7.36
2023-04-18T07:14:04.362Z,7.45
2023-04-18T07:16:51.448Z,7.65
2023-04-18T07:19:37.579Z,7.50
2023-04-18T07:22:23.432Z,7.55
2023-04-18T07:25:09.721Z,7.54
2023-04-18T07:27:55.807Z,7.63
2023-04-18T07:30:41.676Z,7.54
2023-04-18T07:33:31.547Z,7.60
2023-04-18T07:36:17.385Z,7.93
2023-04-18T07:39:03.579Z,7.98
2023-04-18T07:41:49.480Z,8.04
2023-04-18T07:44:36.013Z,8.22
2023-04-18T07:47:22.608Z,8.34
2023-04-18T07:50:11.129Z,8.30
2023-04-18T07:52:56.926Z,8.71
2023-04-18T07:55:43.164Z,8.58
2023-04-18T07:58:29.040Z,8.89
2023-04-18T08:01:18.170Z,8.65
2023-04-18T08:04:04.531Z,8.70
2023-04-18T08:06:52.653Z,9.03
2023-04-18T08:09:38.790Z,8.51
2023-04-18T08:12:25.084Z,8.93
2023-04-18T08:15:11.318Z,9.07
2023-04-18T08:17:57.444Z,9.21
2023-04-18T08:20:43.476Z,9.02
2023-04-18T08:23:30.698Z,9.19
2023-04-18T08:26:16.751Z,9.28
2023-04-18T08:29:03.439Z,9.31
2023-04-18T08:31:49.471Z,9.16
2023-04-18T08:34:36.818Z,9.36
2023-04-18T08:37:22.948Z,9.60
2023-04-18T08:40:10.376Z,9.62
2023-04-18T08:42:56.451Z,9.62
2023-04-18T08:45:42.679Z,9.64
2023-04-18T08:48:28.772Z,9.82
2023-04-18T08:51:14.609Z,10.18
2023-04-18T08:54:04.457Z,10.59
2023-04-18T08:57:05.590Z,11.02
2023-04-18T08:59:53.442Z,10.74
2023-04-18T09:02:42.566Z,10.81
2023-04-18T09:05:28.852Z,11.36
2023-04-18T09:08:24.608Z,11.44
2023-04-18T09:11:28.613Z,11.67
2023-04-18T09:14:20.873Z,11.98
2023-04-18T09:17:07.238Z,12.61
2023-04-18T09:19:54.461Z,13.21
2023-04-18T09:22:46.209Z,13.09
2023-04-18T09:25:35.809Z,13.87
2023-04-18T09:28:23.300Z,14.07
2023-04-18T09:31:13.228Z,13.80
2023-04-18T09:34:00.648Z,13.13
2023-04-18T09:36:46.988Z,13.20
2023-04-18T09:39:33.261Z,13.26
2023-04-18T09:42:18.970Z,13.31
2023-04-18T09:45:05.808Z,12.97
2023-04-18T09:47:53.298Z,12.26
2023-04-18T09:50:39.013Z,12.91
2023-04-18T09:53:24.814Z,13.31
2023-04-18T09:56:11.137Z,13.36
2023-04-18T09:58:57.747Z,13.33
2023-04-18T10:01:45.827Z,12.42
2023-04-18T10:04:33.264Z,13.02
2023-04-18T10:07:19.449Z,13.45
2023-04-18T10:10:05.766Z,13.62
2023-04-18T10:12:52.289Z,13.85
2023-04-18T10:15:38.166Z,13.57
2023-04-18T10:18:24.755Z,13.25
2023-04-18T10:21:12.310Z,12.84
2023-04-18T10:23:58.257Z,12.20
2023-04-18T10:26:53.082Z,12.77
2023-04-18T10:29:47.049Z,12.43
2023-04-18T10:32:32.788Z,12.75
2023-04-18T10:35:18.995Z,12.99
2023-04-18T10:38:06.436Z,12.63
2023-04-18T10:40:52.406Z,12.10
2023-04-18T10:43:53.165Z,12.70
2023-04-18T10:46:40.017Z,12.92
2023-04-18T10:49:27.856Z,13.21
2023-04-18T10:52:15.590Z,13.36
2023-04-18T10:55:19.965Z,13.72
2023-04-18T10:58:07.092Z,13.83
2023-04-18T11:00:52.877Z,14.23
2023-04-18T11:03:38.925Z,14.09
2023-04-18T11:06:25.705Z,14.16
2023-04-18T11:09:12.065Z,13.91
2023-04-18T11:12:04.354Z,13.88
2023-04-18T11:14:52.280Z,13.26
2023-04-18T11:17:40.074Z,13.67
2023-04-18T11:20:26.557Z,13.55
2023-04-18T11:23:16.545Z,13.37
2023-04-18T11:26:03.199Z,13.07
2023-04-18T11:28:51.745Z,13.82
2023-04-18T11:31:39.008Z,13.24
2023-04-18T11:34:28.921Z,13.49
2023-04-18T11:37:16.043Z,13.56
2023-04-18T11:40:02.090Z,13.61
2023-04-18T11:42:47.904Z,13.78
2023-04-18T11:45:33.959Z,14.10
2023-04-18T11:48:21.471Z,13.96
2023-04-18T11:51:07.689Z,13.41
2023-04-18T11:53:53.906Z,13.66
2023-04-18T11:56:47.427Z,13.52
2023-04-18T11:59:33.581Z,12.95
2023-04-18T12:02:19.490Z,13.47
2023-04-18T12:05:08.029Z,13.27
2023-04-18T12:07:54.378Z,13.28
2023-04-18T12:10:46.163Z,13.56
2023-04-18T12:13:32.415Z,13.63
2023-04-18T12:16:18.576Z,13.15
2023-04-18T12:19:04.304Z,13.91
2023-04-18T12:22:01.519Z,13.71
2023-04-18T12:24:47.598Z,14.21
2023-04-18T12:27:47.438Z,14.48
2023-04-18T12:30:35.989Z,13.86
2023-04-18T12:33:23.474Z,13.57
2023-04-18T12:36:10.345Z,13.56
2023-04-18T12:38:57.560Z,14.02
2023-04-18T12:41:44.232Z,14.55
2023-04-18T12:44:30.245Z,15.06
2023-04-18T12:47:16.279Z,15.15
2023-04-18T12:50:02.791Z,15.56
2023-04-18T12:52:49.574Z,16.09
2023-04-18T12:55:37.504Z,16.41
2023-04-18T12:58:23.710Z,16.22
2023-04-18T13:01:09.724Z,16.15
2023-04-18T13:04:08.134Z,16.61
2023-04-18T13:06:57.332Z,16.28
2023-04-18T13:09:43.067Z,16.78
2023-04-18T13:12:30.668Z,16.61
2023-04-18T13:15:17.369Z,16.74
2023-04-18T13:18:06.043Z,16.78
2023-04-18T13:20:52.468Z,16.78
2023-04-18T13:23:38.568Z,16.28
2023-04-18T13:26:24.668Z,15.66
2023-04-18T13:29:12.395Z,15.87
2023-04-18T13:31:58.507Z,15.80
2023-04-18T13:34:44.901Z,15.78
2023-04-18T13:37:31.199Z,15.99
2023-04-18T13:40:17.111Z,15.88
2023-04-18T13:43:03.377Z,15.05
2023-04-18T13:45:50.711Z,14.99
2023-04-18T13:48:36.409Z,14.94
2023-04-18T13:51:22.301Z,15.09
2023-04-18T13:54:08.392Z,14.48
2023-04-18T13:56:54.718Z,14.23
2023-04-18T13:59:40.844Z,13.97
2023-04-18T14:02:28.079Z,14.20
2023-04-18T14:05:14.301Z,14.08
2023-04-18T14:08:03.650Z,13.42
2023-04-18T14:10:49.392Z,13.24
2023-04-18T14:13:35.526Z,13.24
2023-04-18T14:16:22.157Z,13.36
2023-04-18T14:19:09.776Z,13.33
2023-04-18T14:21:55.552Z,13.16
2023-04-18T14:24:41.454Z,13.17
2023-04-18T14:27:27.754Z,13.15
2023-04-18T14:30:15.185Z,13.34
2023-04-18T14:33:01.138Z,13.20
2023-04-18T14:35:48.195Z,13.10
2023-04-18T14:38:34.067Z,13.11
2023-04-18T14:41:20.059Z,13.04
2023-04-18T14:44:06.387Z,12.87
2023-04-18T14:46:52.516Z,12.73
2023-04-18T14:49:38.900Z,12.81
2023-04-18T14:52:26.075Z,12.84
2023-04-18T14:55:12.220Z,12.71
2023-04-18T14:57:58.158Z,12.80
2023-04-18T15:00:43.854Z,12.65
2023-04-18T15:03:30.037Z,12.71
2023-04-18T15:06:16.329Z,12.80
2023-04-18T15:09:03.680Z,12.65
2023-04-18T15:11:49.559Z,12.72
2023-04-18T15:14:35.860Z,12.79
2023-04-18T15:17:22.068Z,12.76
2023-04-18T15:20:09.336Z,12.58
2023-04-18T15:22:55.126Z,12.43
2023-04-18T15:25:42.619Z,12.35
2023-04-18T15:28:28.694Z,12.38
2023-04-18T15:31:16.005Z,12.40
2023-04-18T15:34:02.180Z,12.48
2023-04-18T15:36:48.593Z,12.53
2023-04-18T15:39:34.889Z,12.52
2023-04-18T15:42:21.998Z,12.53
2023-04-18T15:45:08.713Z,12.59
2023-04-18T15:47:54.557Z,12.73
2023-04-18T15:50:40.324Z,12.73
2023-04-18T15:53:26.865Z,12.73
2023-04-18T15:56:13.690Z,12.80
2023-04-18T15:59:02.022Z,12.90
2023-04-18T16:01:48.435Z,12.78
2023-04-18T16:04:34.558Z,12.75
2023-04-18T16:07:21.009Z,12.69
2023-04-18T16:10:08.561Z,12.76
2023-04-18T16:12:54.492Z,12.88
2023-04-18T16:15:42.757Z,12.87
2023-04-18T16:18:29.183Z,12.94
2023-04-18T16:21:15.114Z,12.69
2023-04-18T16:24:01.165Z,12.86
2023-04-18T16:26:47.034Z,12.77
2023-04-18T16:29:32.710Z,12.66
2023-04-18T16:32:19.769Z,12.60
2023-04-18T16:35:07.621Z,12.66
2023-04-18T16:37:53.436Z,12.68
2023-04-18T16:40:39.354Z,12.75
2023-04-18T16:43:26.776Z,12.73
2023-04-18T16:46:13.660Z,12.70
2023-04-18T16:49:02.048Z,12.52
2023-04-18T16:51:48.932Z,12.67
2023-04-18T16:54:34.507Z,12.64
2023-04-18T16:57:20.272Z,12.59
2023-04-18T17:00:07.764Z,12.24
2023-04-18T17:02:55.645Z,12.46
2023-04-18T17:05:42.974Z,12.49
2023-04-18T17:08:31.244Z,12.51
2023-04-18T17:11:17.377Z,12.53
2023-04-18T17:14:03.389Z,12.35
2023-04-18T17:16:51.328Z,12.38
2023-04-18T17:19:40.023Z,12.33
2023-04-18T17:22:27.416Z,12.20
2023-04-18T17:25:13.288Z,12.33
2023-04-18T17:28:01.975Z,12.27
2023-04-18T17:30:47.705Z,12.28
2023-04-18T17:33:33.534Z,12.25
2023-04-18T17:36:19.473Z,12.31
2023-04-18T17:39:06.775Z,12.05
2023-04-18T17:41:53.101Z,12.12
2023-04-18T17:44:39.744Z,12.10
2023-04-18T17:47:25.633Z,12.02
2023-04-18T17:50:12.317Z,11.91
2023-04-18T17:52:58.371Z,11.96
2023-04-18T17:55:48.594Z,11.94
2023-04-18T17:58:34.320Z,11.87
2023-04-18T18:01:21.942Z,11.83
2023-04-18T18:04:09.836Z,11.73
2023-04-18T18:06:56.132Z,11.68
2023-04-18T18:09:42.464Z,11.64
2023-04-18T18:12:30.688Z,11.67
2023-04-18T18:15:16.466Z,11.58
2023-04-18T18:18:02.398Z,11.45
2023-04-18T18:20:48.461Z,11.42
2023-04-18T18:23:34.121Z,11.52
2023-04-18T18:26:19.910Z,11.50
2023-04-18T18:29:09.604Z,11.48
2023-04-18T18:31:55.796Z,11.41
2023-04-18T18:34:41.973Z,11.43
2023-04-18T18:37:27.845Z,11.41
2023-04-18T18:40:13.836Z,11.40
2023-04-18T18:42:59.599Z,11.37
2023-04-18T18:45:46.674Z,11.39
2023-04-18T18:48:36.772Z,11.38
2023-04-18T18:51:23.694Z,11.37
2023-04-18T18:54:09.510Z,11.31
2023-04-18T18:56:55.335Z,11.33
2023-04-18T18:59:41.551Z,11.27
2023-04-18T19:02:28.871Z,11.26
2023-04-18T19:05:14.865Z,11.20
2023-04-18T19:08:03.887Z,11.25
2023-04-18T19:10:50.585Z,11.22
2023-04-18T19:13:36.555Z,11.21
2023-04-18T19:16:22.358Z,11.16
2023-04-18T19:19:10.104Z,11.15
2023-04-18T19:21:56.355Z,11.13
2023-04-18T19:24:42.373Z,11.14
2023-04-18T19:27:28.222Z,11.14
2023-04-18T19:30:14.191Z,11.09
2023-04-18T19:33:00.175Z,11.08
2023-04-18T19:35:47.600Z,11.06
2023-04-18T19:38:34.490Z,11.04
2023-04-18T19:41:20.491Z,11.00
2023-04-18T19:44:06.534Z,10.88
2023-04-18T19:46:52.552Z,10.93
2023-04-18T19:49:38.394Z,10.86
2023-04-18T19:52:25.516Z,10.75
2023-04-18T19:55:11.660Z,10.72
2023-04-18T19:57:57.702Z,10.67
2023-04-18T20:00:43.440Z,10.60
2023-04-18T20:03:29.534Z,10.56
2023-04-18T20:06:15.468Z,10.51
2023-04-18T20:09:03.557Z,10.49
2023-04-18T20:11:49.448Z,10.51
2023-04-18T20:14:35.483Z,10.50
2023-04-18T20:17:21.546Z,10.47
2023-04-18T20:20:10.298Z,10.47
2023-04-18T20:22:56.125Z,10.46
2023-04-18T20:25:43.426Z,10.46
2023-04-18T20:28:29.680Z,10.49
2023-04-18T20:31:15.534Z,10.44
2023-04-18T20:34:01.718Z,10.47
2023-04-18T20:36:49.765Z,10.44
2023-04-18T20:39:36.725Z,10.49
2023-04-18T20:42:24.218Z,10.47
2023-04-18T20:45:11.447Z,10.48
2023-04-18T20:47:57.658Z,10.46
2023-04-18T20:50:44.394Z,10.44
2023-04-18T20:53:30.267Z,10.46
2023-04-18T20:56:16.510Z,10.47
2023-04-18T20:59:04.591Z,10.43
2023-04-18T21:01:50.787Z,10.45
2023-04-18T21:04:37.153Z,10.40
2023-04-18T21:07:23.177Z,10.38
2023-04-18T21:10:09.490Z,10.40
2023-04-18T21:12:56.096Z,10.41
2023-04-18T21:15:43.894Z,10.33
2023-04-18T21:18:30.425Z,10.33
2023-04-18T21:21:17.035Z,10.32
2023-04-18T21:24:03.673Z,10.30
2023-04-18T21:26:49.915Z,10.26
2023-04-18T21:29:36.375Z,10.29
2023-04-18T21:32:23.673Z,10.29
2023-04-18T21:35:10.293Z,10.27
2023-04-18T21:37:56.031Z,10.26
2023-04-18T21:40:42.047Z,10.21
2023-04-18T21:43:27.881Z,10.19
2023-04-18T21:46:13.627Z,10.16
2023-04-18T21:49:01.281Z,10.08
2023-04-18T21:51:51.511Z,10.10
2023-04-18T21:54:37.829Z,10.16
2023-04-18T21:57:23.838Z,10.14
2023-04-18T22:00:11.143Z,10.10
2023-04-18T22:02:59.282Z,10.14
2023-04-18T22:05:47.142Z,10.03
2023-04-18T22:08:32.976Z,9.99
2023-04-18T22:11:18.938Z,9.99
2023-04-18T22:14:05.229Z,9.96
2023-04-18T22:16:51.247Z,9.96
2023-04-18T22:19:37.641Z,9.92
2023-04-18T22:22:24.607Z,9.90
2023-04-18T22:25:11.492Z,9.95
2023-04-18T22:27:57.318Z,9.88
2023-04-18T22:30:43.008Z,9.88
2023-04-18T22:33:29.444Z,9.88
2023-04-18T22:36:15.595Z,9.89
2023-04-18T22:39:02.637Z,9.83
2023-04-18T22:41:48.402Z,9.85
2023-04-18T22:44:34.098Z,9.78
2023-04-18T22:47:19.889Z,9.79
2023-04-18T22:50:06.184Z,9.77
2023-04-18T22:52:51.915Z,9.77
2023-04-18T22:55:42.439Z,9.74
2023-04-18T22:58:28.576Z,9.71
2023-04-18T23:01:14.646Z,9.66
2023-04-18T23:04:00.751Z,9.68
2023-04-18T23:06:47.074Z,9.67
2023-04-18T23:09:33.969Z,9.65
2023-04-18T23:12:21.929Z,9.63
2023-04-18T23:15:08.801Z,9.60
2023-04-18T23:17:54.971Z,9.61
2023-04-18T23:20:41.084Z,9.52
2023-04-18T23:23:26.916Z,9.52
2023-04-18T23:26:13.828Z,9.44
2023-04-18T23:29:01.297Z,9.49
2023-04-18T23:31:47.698Z,9.36
2023-04-18T23:34:33.470Z,9.42
2023-04-18T23:37:19.581Z,9.38
2023-04-18T23:40:06.509Z,9.34
2023-04-18T23:42:52.483Z,9.24
2023-04-18T23:45:39.622Z,9.27
2023-04-18T23:48:25.704Z,9.22
2023-04-18T23:51:11.447Z,9.23
2023-04-18T23:53:57.852Z,9.22
2023-04-18T23:56:43.812Z,9.23
2023-04-18T23:59:29.442Z,9.21
